sensor_id;sensor_type;location;lat;lon;timestamp;temperature;humidity
28763;DHT22;15918;51.270;6.522;2022-12-10T00:00:22;6.60;62.00
28763;DHT22;15918;51.270;6.522;2022-12-10T00:02:48;6.60;61.90
28763;DHT22;15918;51.270;6.522;2022-12-10T00:05:14;6.60;61.90
28763;DHT22;15918;51.270;6.522;2022-12-10T00:07:39;6.60;61.80
28763;DHT22;15918;51.270;6.522;2022-12-10T00:10:05;6.60;61.80
28763;DHT22;15918;51.270;6.522;2022-12-10T00:12:31;6.60;61.70
28763;DHT22;15918;51.270;6.522;2022-12-10T00:14:56;6.50;61.60
28763;DHT22;15918;51.270;6.522;2022-12-10T00:17:22;6.50;61.60
28763;DHT22;15918;51.270;6.522;2022-12-10T00:19:47;6.50;61.60
28763;DHT22;15918;51.270;6.522;2022-12-10T00:22:13;6.50;61.50
28763;DHT22;15918;51.270;6.522;2022-12-10T00:24:38;6.50;61.40
28763;DHT22;15918;51.270;6.522;2022-12-10T00:27:04;6.50;61.40
28763;DHT22;15918;51.270;6.522;2022-12-10T00:29:29;6.50;61.50
28763;DHT22;15918;51.270;6.522;2022-12-10T00:31:55;6.50;61.50
28763;DHT22;15918;51.270;6.522;2022-12-10T00:34:20;6.50;61.60
28763;DHT22;15918;51.270;6.522;2022-12-10T00:36:47;6.50;61.60
28763;DHT22;15918;51.270;6.522;2022-12-10T00:39:17;6.40;61.50
28763;DHT22;15918;51.270;6.522;2022-12-10T00:41:43;6.50;61.60
28763;DHT22;15918;51.270;6.522;2022-12-10T00:44:09;6.40;61.50
28763;DHT22;15918;51.270;6.522;2022-12-10T00:46:35;6.40;61.30
28763;DHT22;15918;51.270;6.522;2022-12-10T00:49:01;6.40;61.20
28763;DHT22;15918;51.270;6.522;2022-12-10T00:51:27;6.40;61.30
28763;DHT22;15918;51.270;6.522;2022-12-10T00:53:55;6.40;61.20
28763;DHT22;15918;51.270;6.522;2022-12-10T00:56:26;6.40;61.10
28763;DHT22;15918;51.270;6.522;2022-12-10T00:58:53;6.40;61.00
28763;DHT22;15918;51.270;6.522;2022-12-10T01:01:31;6.40;61.10
28763;DHT22;15918;51.270;6.522;2022-12-10T01:03:59;6.30;61.00
28763;DHT22;15918;51.270;6.522;2022-12-10T01:06:34;6.30;61.00
28763;DHT22;15918;51.270;6.522;2022-12-10T01:09:04;6.30;61.00
28763;DHT22;15918;51.270;6.522;2022-12-10T01:11:33;6.30;61.10
28763;DHT22;15918;51.270;6.522;2022-12-10T01:13:59;6.30;61.00
28763;DHT22;15918;51.270;6.522;2022-12-10T01:16:25;6.30;61.00
28763;DHT22;15918;51.270;6.522;2022-12-10T01:18:55;6.30;61.00
28763;DHT22;15918;51.270;6.522;2022-12-10T01:21:22;6.20;60.90
28763;DHT22;15918;51.270;6.522;2022-12-10T01:23:49;6.20;60.90
28763;DHT22;15918;51.270;6.522;2022-12-10T01:26:21;6.20;60.80
28763;DHT22;15918;51.270;6.522;2022-12-10T01:28:48;6.20;60.80
28763;DHT22;15918;51.270;6.522;2022-12-10T01:31:20;6.20;61.60
28763;DHT22;15918;51.270;6.522;2022-12-10T01:33:47;6.20;60.70
28763;DHT22;15918;51.270;6.522;2022-12-10T01:36:16;6.20;60.60
28763;DHT22;15918;51.270;6.522;2022-12-10T01:38:42;6.20;60.60
28763;DHT22;15918;51.270;6.522;2022-12-10T01:41:14;6.20;60.70
28763;DHT22;15918;51.270;6.522;2022-12-10T01:43:59;6.20;60.50
28763;DHT22;15918;51.270;6.522;2022-12-10T01:46:30;6.20;60.30
28763;DHT22;15918;51.270;6.522;2022-12-10T01:48:58;6.10;60.50
28763;DHT22;15918;51.270;6.522;2022-12-10T01:51:26;6.10;60.60
28763;DHT22;15918;51.270;6.522;2022-12-10T01:53:53;6.10;60.50
28763;DHT22;15918;51.270;6.522;2022-12-10T01:56:19;6.10;60.50
28763;DHT22;15918;51.270;6.522;2022-12-10T01:58:47;6.10;60.40
28763;DHT22;15918;51.270;6.522;2022-12-10T02:06:58;6.10;60.60
28763;DHT22;15918;51.270;6.522;2022-12-10T02:12:35;5.90;61.00
28763;DHT22;15918;51.270;6.522;2022-12-10T02:15:24;6.00;61.00
28763;DHT22;15918;51.270;6.522;2022-12-10T02:17:57;6.00;60.90
28763;DHT22;15918;51.270;6.522;2022-12-10T02:23:10;6.00;61.20
28763;DHT22;15918;51.270;6.522;2022-12-10T02:25:51;6.00;61.30
28763;DHT22;15918;51.270;6.522;2022-12-10T02:31:09;6.00;61.60
28763;DHT22;15918;51.270;6.522;2022-12-10T02:33:40;6.00;61.80
28763;DHT22;15918;51.270;6.522;2022-12-10T02:36:09;6.00;61.90
28763;DHT22;15918;51.270;6.522;2022-12-10T02:38:37;5.90;61.90
28763;DHT22;15918;51.270;6.522;2022-12-10T02:41:10;5.90;62.00
28763;DHT22;15918;51.270;6.522;2022-12-10T02:43:37;6.00;62.20
28763;DHT22;15918;51.270;6.522;2022-12-10T02:46:03;5.90;62.30
28763;DHT22;15918;51.270;6.522;2022-12-10T02:48:31;6.00;62.50
28763;DHT22;15918;51.270;6.522;2022-12-10T02:50:56;6.00;62.60
28763;DHT22;15918;51.270;6.522;2022-12-10T02:53:22;6.00;62.70
28763;DHT22;15918;51.270;6.522;2022-12-10T02:58:47;6.00;62.70
28763;DHT22;15918;51.270;6.522;2022-12-10T03:03:50;5.90;63.00
28763;DHT22;15918;51.270;6.522;2022-12-10T03:09:09;6.00;63.20
28763;DHT22;15918;51.270;6.522;2022-12-10T03:11:37;6.00;63.20
28763;DHT22;15918;51.270;6.522;2022-12-10T03:14:16;5.90;63.30
28763;DHT22;15918;51.270;6.522;2022-12-10T03:16:59;5.90;63.40
28763;DHT22;15918;51.270;6.522;2022-12-10T03:19:35;6.00;63.40
28763;DHT22;15918;51.270;6.522;2022-12-10T03:22:03;6.00;63.50
28763;DHT22;15918;51.270;6.522;2022-12-10T03:24:30;6.00;63.70
28763;DHT22;15918;51.270;6.522;2022-12-10T03:26:57;6.00;63.70
28763;DHT22;15918;51.270;6.522;2022-12-10T03:29:28;6.00;63.70
28763;DHT22;15918;51.270;6.522;2022-12-10T03:31:56;5.90;63.60
28763;DHT22;15918;51.270;6.522;2022-12-10T03:34:23;6.00;63.70
28763;DHT22;15918;51.270;6.522;2022-12-10T03:36:50;6.00;63.80
28763;DHT22;15918;51.270;6.522;2022-12-10T03:39:17;6.00;63.70
28763;DHT22;15918;51.270;6.522;2022-12-10T03:41:43;6.00;63.80
28763;DHT22;15918;51.270;6.522;2022-12-10T03:44:08;6.00;63.80
28763;DHT22;15918;51.270;6.522;2022-12-10T03:46:34;6.00;63.90
28763;DHT22;15918;51.270;6.522;2022-12-10T03:49:01;6.00;63.90
28763;DHT22;15918;51.270;6.522;2022-12-10T03:51:27;6.00;63.90
28763;DHT22;15918;51.270;6.522;2022-12-10T03:53:53;6.00;64.00
28763;DHT22;15918;51.270;6.522;2022-12-10T03:56:19;6.00;64.00
28763;DHT22;15918;51.270;6.522;2022-12-10T03:58:45;6.00;64.10
28763;DHT22;15918;51.270;6.522;2022-12-10T04:01:11;6.00;64.10
28763;DHT22;15918;51.270;6.522;2022-12-10T04:03:38;6.00;64.00
28763;DHT22;15918;51.270;6.522;2022-12-10T04:06:13;6.00;64.10
28763;DHT22;15918;51.270;6.522;2022-12-10T04:08:38;6.00;64.00
28763;DHT22;15918;51.270;6.522;2022-12-10T04:11:06;6.00;64.10
28763;DHT22;15918;51.270;6.522;2022-12-10T04:13:36;6.00;64.10
28763;DHT22;15918;51.270;6.522;2022-12-10T04:16:22;6.00;64.00
28763;DHT22;15918;51.270;6.522;2022-12-10T04:19:06;6.00;64.10
28763;DHT22;15918;51.270;6.522;2022-12-10T04:21:34;6.00;64.00
28763;DHT22;15918;51.270;6.522;2022-12-10T04:24:25;6.00;64.10
28763;DHT22;15918;51.270;6.522;2022-12-10T04:27:12;5.90;64.00
28763;DHT22;15918;51.270;6.522;2022-12-10T04:29:39;5.90;63.90
28763;DHT22;15918;51.270;6.522;2022-12-10T04:32:05;5.90;63.80
28763;DHT22;15918;51.270;6.522;2022-12-10T04:34:31;5.90;63.70
28763;DHT22;15918;51.270;6.522;2022-12-10T04:36:58;5.90;63.60
28763;DHT22;15918;51.270;6.522;2022-12-10T04:39:24;5.90;63.50
28763;DHT22;15918;51.270;6.522;2022-12-10T04:41:50;5.90;63.50
28763;DHT22;15918;51.270;6.522;2022-12-10T04:44:17;5.90;63.40
28763;DHT22;15918;51.270;6.522;2022-12-10T04:46:43;5.90;63.30
28763;DHT22;15918;51.270;6.522;2022-12-10T04:49:09;5.90;63.20
28763;DHT22;15918;51.270;6.522;2022-12-10T04:51:34;5.90;63.20
28763;DHT22;15918;51.270;6.522;2022-12-10T04:54:00;5.90;63.00
28763;DHT22;15918;51.270;6.522;2022-12-10T04:56:26;5.90;63.00
28763;DHT22;15918;51.270;6.522;2022-12-10T04:58:52;5.90;62.80
28763;DHT22;15918;51.270;6.522;2022-12-10T05:01:19;5.90;62.80
28763;DHT22;15918;51.270;6.522;2022-12-10T05:03:45;5.80;62.70
28763;DHT22;15918;51.270;6.522;2022-12-10T05:06:13;5.80;62.70
28763;DHT22;15918;51.270;6.522;2022-12-10T05:08:40;5.80;62.60
28763;DHT22;15918;51.270;6.522;2022-12-10T05:11:08;5.80;62.60
28763;DHT22;15918;51.270;6.522;2022-12-10T05:13:34;5.80;62.50
28763;DHT22;15918;51.270;6.522;2022-12-10T05:16:04;5.80;62.40
28763;DHT22;15918;51.270;6.522;2022-12-10T05:18:30;5.80;62.30
28763;DHT22;15918;51.270;6.522;2022-12-10T05:21:00;5.80;62.20
28763;DHT22;15918;51.270;6.522;2022-12-10T05:23:26;5.80;62.10
28763;DHT22;15918;51.270;6.522;2022-12-10T05:26:02;5.80;62.10
28763;DHT22;15918;51.270;6.522;2022-12-10T05:28:30;5.80;62.00
28763;DHT22;15918;51.270;6.522;2022-12-10T05:30:56;5.70;62.00
28763;DHT22;15918;51.270;6.522;2022-12-10T05:33:23;5.70;62.00
28763;DHT22;15918;51.270;6.522;2022-12-10T05:35:56;5.70;62.00
28763;DHT22;15918;51.270;6.522;2022-12-10T05:38:22;5.70;61.80
28763;DHT22;15918;51.270;6.522;2022-12-10T05:40:49;5.70;61.90
28763;DHT22;15918;51.270;6.522;2022-12-10T05:43:15;5.70;61.80
28763;DHT22;15918;51.270;6.522;2022-12-10T05:45:40;5.70;61.80
28763;DHT22;15918;51.270;6.522;2022-12-10T05:48:06;5.70;61.80
28763;DHT22;15918;51.270;6.522;2022-12-10T05:50:32;5.70;61.80
28763;DHT22;15918;51.270;6.522;2022-12-10T05:52:58;5.60;61.70
28763;DHT22;15918;51.270;6.522;2022-12-10T05:55:23;5.70;61.80
28763;DHT22;15918;51.270;6.522;2022-12-10T05:57:50;5.60;61.70
28763;DHT22;15918;51.270;6.522;2022-12-10T06:00:15;5.70;61.70
28763;DHT22;15918;51.270;6.522;2022-12-10T06:02:41;5.60;61.60
28763;DHT22;15918;51.270;6.522;2022-12-10T06:05:07;5.60;61.80
28763;DHT22;15918;51.270;6.522;2022-12-10T06:07:32;5.60;61.80
28763;DHT22;15918;51.270;6.522;2022-12-10T06:09:58;5.60;61.80
28763;DHT22;15918;51.270;6.522;2022-12-10T06:12:23;5.60;61.90
28763;DHT22;15918;51.270;6.522;2022-12-10T06:14:49;5.60;61.90
28763;DHT22;15918;51.270;6.522;2022-12-10T06:17:14;5.60;61.90
28763;DHT22;15918;51.270;6.522;2022-12-10T06:19:40;5.60;62.00
28763;DHT22;15918;51.270;6.522;2022-12-10T06:22:06;5.60;62.00
28763;DHT22;15918;51.270;6.522;2022-12-10T06:24:31;5.60;62.00
28763;DHT22;15918;51.270;6.522;2022-12-10T06:26:57;5.60;62.20
28763;DHT22;15918;51.270;6.522;2022-12-10T06:29:23;5.60;62.20
28763;DHT22;15918;51.270;6.522;2022-12-10T06:31:48;5.50;62.10
28763;DHT22;15918;51.270;6.522;2022-12-10T06:34:14;5.60;62.30
28763;DHT22;15918;51.270;6.522;2022-12-10T06:36:40;5.50;62.30
28763;DHT22;15918;51.270;6.522;2022-12-10T06:39:05;5.50;62.40
28763;DHT22;15918;51.270;6.522;2022-12-10T06:41:31;5.50;62.50
28763;DHT22;15918;51.270;6.522;2022-12-10T06:43:56;5.50;62.60
28763;DHT22;15918;51.270;6.522;2022-12-10T06:46:24;5.50;62.80
28763;DHT22;15918;51.270;6.522;2022-12-10T06:48:50;5.50;62.90
28763;DHT22;15918;51.270;6.522;2022-12-10T06:51:17;5.50;63.00
28763;DHT22;15918;51.270;6.522;2022-12-10T06:53:43;5.50;63.10
28763;DHT22;15918;51.270;6.522;2022-12-10T06:56:13;5.50;63.20
28763;DHT22;15918;51.270;6.522;2022-12-10T06:58:38;5.50;63.30
28763;DHT22;15918;51.270;6.522;2022-12-10T07:01:14;5.60;63.40
28763;DHT22;15918;51.270;6.522;2022-12-10T07:03:41;5.60;63.50
28763;DHT22;15918;51.270;6.522;2022-12-10T07:06:08;5.50;63.70
28763;DHT22;15918;51.270;6.522;2022-12-10T07:08:34;5.50;63.70
28763;DHT22;15918;51.270;6.522;2022-12-10T07:11:04;5.50;63.80
28763;DHT22;15918;51.270;6.522;2022-12-10T07:13:30;5.50;63.90
28763;DHT22;15918;51.270;6.522;2022-12-10T07:15:55;5.50;63.90
28763;DHT22;15918;51.270;6.522;2022-12-10T07:18:21;5.50;63.90
28763;DHT22;15918;51.270;6.522;2022-12-10T07:20:47;5.50;64.00
28763;DHT22;15918;51.270;6.522;2022-12-10T07:23:12;5.50;64.10
28763;DHT22;15918;51.270;6.522;2022-12-10T07:25:38;5.50;64.10
28763;DHT22;15918;51.270;6.522;2022-12-10T07:28:03;5.50;64.40
28763;DHT22;15918;51.270;6.522;2022-12-10T07:30:29;5.50;64.40
28763;DHT22;15918;51.270;6.522;2022-12-10T07:32:55;5.50;64.50
28763;DHT22;15918;51.270;6.522;2022-12-10T07:35:20;5.50;64.50
28763;DHT22;15918;51.270;6.522;2022-12-10T07:37:46;5.50;64.60
28763;DHT22;15918;51.270;6.522;2022-12-10T07:40:11;5.50;64.60
28763;DHT22;15918;51.270;6.522;2022-12-10T07:42:37;5.60;64.70
28763;DHT22;15918;51.270;6.522;2022-12-10T07:45:03;5.50;64.70
28763;DHT22;15918;51.270;6.522;2022-12-10T07:47:29;5.50;64.70
28763;DHT22;15918;51.270;6.522;2022-12-10T07:49:54;5.50;64.70
28763;DHT22;15918;51.270;6.522;2022-12-10T07:52:20;5.50;64.80
28763;DHT22;15918;51.270;6.522;2022-12-10T07:54:45;5.50;64.90
28763;DHT22;15918;51.270;6.522;2022-12-10T07:57:11;5.50;64.90
28763;DHT22;15918;51.270;6.522;2022-12-10T07:59:36;5.50;64.90
28763;DHT22;15918;51.270;6.522;2022-12-10T08:02:02;5.50;64.90
28763;DHT22;15918;51.270;6.522;2022-12-10T08:04:28;5.50;64.90
28763;DHT22;15918;51.270;6.522;2022-12-10T08:06:56;5.50;64.90
28763;DHT22;15918;51.270;6.522;2022-12-10T08:09:21;5.50;64.90
28763;DHT22;15918;51.270;6.522;2022-12-10T08:11:47;5.50;64.90
28763;DHT22;15918;51.270;6.522;2022-12-10T08:14:13;5.50;64.90
28763;DHT22;15918;51.270;6.522;2022-12-10T08:16:38;5.50;65.00
28763;DHT22;15918;51.270;6.522;2022-12-10T08:19:04;5.50;65.00
28763;DHT22;15918;51.270;6.522;2022-12-10T08:21:32;5.50;65.10
28763;DHT22;15918;51.270;6.522;2022-12-10T08:23:58;5.50;65.10
28763;DHT22;15918;51.270;6.522;2022-12-10T08:26:26;5.50;65.00
28763;DHT22;15918;51.270;6.522;2022-12-10T08:28:52;5.50;65.00
28763;DHT22;15918;51.270;6.522;2022-12-10T08:31:20;5.50;65.00
28763;DHT22;15918;51.270;6.522;2022-12-10T08:33:46;5.50;65.00
28763;DHT22;15918;51.270;6.522;2022-12-10T08:36:14;5.50;65.00
28763;DHT22;15918;51.270;6.522;2022-12-10T08:38:40;5.50;65.10
28763;DHT22;15918;51.270;6.522;2022-12-10T08:41:23;5.50;65.20
28763;DHT22;15918;51.270;6.522;2022-12-10T08:43:51;5.50;65.10
28763;DHT22;15918;51.270;6.522;2022-12-10T08:46:17;5.50;65.30
28763;DHT22;15918;51.270;6.522;2022-12-10T08:48:43;5.50;66.10
28763;DHT22;15918;51.270;6.522;2022-12-10T08:51:11;5.50;65.30
28763;DHT22;15918;51.270;6.522;2022-12-10T08:53:38;5.50;65.30
28763;DHT22;15918;51.270;6.522;2022-12-10T08:56:04;5.50;65.30
28763;DHT22;15918;51.270;6.522;2022-12-10T08:58:29;5.50;65.30
28763;DHT22;15918;51.270;6.522;2022-12-10T09:00:55;5.50;65.30
28763;DHT22;15918;51.270;6.522;2022-12-10T09:03:21;5.50;65.30
28763;DHT22;15918;51.270;6.522;2022-12-10T09:05:46;5.50;65.40
28763;DHT22;15918;51.270;6.522;2022-12-10T09:08:12;5.50;65.50
28763;DHT22;15918;51.270;6.522;2022-12-10T09:10:39;5.60;65.60
28763;DHT22;15918;51.270;6.522;2022-12-10T09:13:05;5.50;65.60
28763;DHT22;15918;51.270;6.522;2022-12-10T09:15:31;5.60;65.70
28763;DHT22;15918;51.270;6.522;2022-12-10T09:17:57;5.60;65.70
28763;DHT22;15918;51.270;6.522;2022-12-10T09:20:23;5.60;65.80
28763;DHT22;15918;51.270;6.522;2022-12-10T09:22:48;5.60;65.80
28763;DHT22;15918;51.270;6.522;2022-12-10T09:25:14;5.60;65.80
28763;DHT22;15918;51.270;6.522;2022-12-10T09:27:42;5.60;65.90
28763;DHT22;15918;51.270;6.522;2022-12-10T09:30:08;5.60;66.00
28763;DHT22;15918;51.270;6.522;2022-12-10T09:32:34;5.60;66.00
28763;DHT22;15918;51.270;6.522;2022-12-10T09:35:00;5.70;66.00
28763;DHT22;15918;51.270;6.522;2022-12-10T09:37:26;5.70;66.00
28763;DHT22;15918;51.270;6.522;2022-12-10T09:39:51;5.70;66.10
28763;DHT22;15918;51.270;6.522;2022-12-10T09:44:58;5.60;66.00
28763;DHT22;15918;51.270;6.522;2022-12-10T09:47:46;5.70;65.90
28763;DHT22;15918;51.270;6.522;2022-12-10T09:50:48;5.70;65.80
28763;DHT22;15918;51.270;6.522;2022-12-10T09:53:17;5.60;66.50
28763;DHT22;15918;51.270;6.522;2022-12-10T09:55:46;5.60;65.80
28763;DHT22;15918;51.270;6.522;2022-12-10T09:58:19;5.60;65.70
28763;DHT22;15918;51.270;6.522;2022-12-10T10:00:48;5.60;65.70
28763;DHT22;15918;51.270;6.522;2022-12-10T10:03:16;5.60;65.80
28763;DHT22;15918;51.270;6.522;2022-12-10T10:05:50;5.60;65.80
28763;DHT22;15918;51.270;6.522;2022-12-10T10:08:32;5.60;65.90
28763;DHT22;15918;51.270;6.522;2022-12-10T10:11:00;5.60;65.90
28763;DHT22;15918;51.270;6.522;2022-12-10T10:13:42;5.60;66.00
28763;DHT22;15918;51.270;6.522;2022-12-10T10:16:37;5.60;66.00
28763;DHT22;15918;51.270;6.522;2022-12-10T10:19:16;5.60;66.10
28763;DHT22;15918;51.270;6.522;2022-12-10T10:21:48;5.60;66.20
28763;DHT22;15918;51.270;6.522;2022-12-10T10:24:15;5.60;66.30
28763;DHT22;15918;51.270;6.522;2022-12-10T10:26:42;5.60;66.30
28763;DHT22;15918;51.270;6.522;2022-12-10T10:29:10;5.60;66.30
28763;DHT22;15918;51.270;6.522;2022-12-10T10:31:39;5.70;66.30
28763;DHT22;15918;51.270;6.522;2022-12-10T10:34:15;5.70;66.30
28763;DHT22;15918;51.270;6.522;2022-12-10T10:36:41;5.70;66.30
28763;DHT22;15918;51.270;6.522;2022-12-10T10:39:28;5.60;66.30
28763;DHT22;15918;51.270;6.522;2022-12-10T10:41:56;5.70;66.20
28763;DHT22;15918;51.270;6.522;2022-12-10T10:44:24;5.70;66.30
28763;DHT22;15918;51.270;6.522;2022-12-10T10:46:53;5.70;66.30
28763;DHT22;15918;51.270;6.522;2022-12-10T10:49:25;5.70;66.30
28763;DHT22;15918;51.270;6.522;2022-12-10T10:52:04;5.70;66.30
28763;DHT22;15918;51.270;6.522;2022-12-10T10:54:37;5.70;66.30
28763;DHT22;15918;51.270;6.522;2022-12-10T10:57:20;5.70;66.30
28763;DHT22;15918;51.270;6.522;2022-12-10T10:59:47;5.70;66.30
28763;DHT22;15918;51.270;6.522;2022-12-10T11:02:42;5.70;66.30
28763;DHT22;15918;51.270;6.522;2022-12-10T11:05:17;5.70;66.10
28763;DHT22;15918;51.270;6.522;2022-12-10T11:07:45;5.70;66.40
28763;DHT22;15918;51.270;6.522;2022-12-10T11:10:22;5.70;66.40
28763;DHT22;15918;51.270;6.522;2022-12-10T11:13:27;5.70;66.40
28763;DHT22;15918;51.270;6.522;2022-12-10T11:19:01;5.70;66.50
28763;DHT22;15918;51.270;6.522;2022-12-10T11:21:32;5.70;66.70
28763;DHT22;15918;51.270;6.522;2022-12-10T11:23:59;5.70;66.70
28763;DHT22;15918;51.270;6.522;2022-12-10T11:27:04;5.70;66.60
28763;DHT22;15918;51.270;6.522;2022-12-10T11:38:27;5.70;66.70
28763;DHT22;15918;51.270;6.522;2022-12-10T11:41:06;5.70;66.70
28763;DHT22;15918;51.270;6.522;2022-12-10T11:47:12;5.70;66.80
28763;DHT22;15918;51.270;6.522;2022-12-10T11:53:16;5.70;66.70
28763;DHT22;15918;51.270;6.522;2022-12-10T11:55:52;5.70;66.80
28763;DHT22;15918;51.270;6.522;2022-12-10T12:01:06;5.80;66.70
28763;DHT22;15918;51.270;6.522;2022-12-10T12:09:11;5.80;66.70
28763;DHT22;15918;51.270;6.522;2022-12-10T12:14:26;5.70;66.90
28763;DHT22;15918;51.270;6.522;2022-12-10T12:17:09;5.80;66.90
28763;DHT22;15918;51.270;6.522;2022-12-10T12:19:56;5.80;66.90
28763;DHT22;15918;51.270;6.522;2022-12-10T12:22:27;5.80;66.90
28763;DHT22;15918;51.270;6.522;2022-12-10T12:25:05;5.80;66.90
28763;DHT22;15918;51.270;6.522;2022-12-10T12:27:54;5.70;67.50
28763;DHT22;15918;51.270;6.522;2022-12-10T12:30:22;5.80;66.80
28763;DHT22;15918;51.270;6.522;2022-12-10T12:33:11;5.80;66.90
28763;DHT22;15918;51.270;6.522;2022-12-10T12:38:32;5.80;66.80
28763;DHT22;15918;51.270;6.522;2022-12-10T12:41:05;5.80;67.00
28763;DHT22;15918;51.270;6.522;2022-12-10T12:46:02;5.80;67.20
28763;DHT22;15918;51.270;6.522;2022-12-10T12:53:29;5.80;66.90
28763;DHT22;15918;51.270;6.522;2022-12-10T12:56:38;5.90;66.90
28763;DHT22;15918;51.270;6.522;2022-12-10T13:04:47;5.90;67.00
28763;DHT22;15918;51.270;6.522;2022-12-10T13:09:45;5.90;67.00
28763;DHT22;15918;51.270;6.522;2022-12-10T13:17:36;5.90;67.00
28763;DHT22;15918;51.270;6.522;2022-12-10T13:23:01;6.00;67.10
28763;DHT22;15918;51.270;6.522;2022-12-10T13:28:30;6.00;66.90
28763;DHT22;15918;51.270;6.522;2022-12-10T13:31:21;6.00;67.10
28763;DHT22;15918;51.270;6.522;2022-12-10T13:36:35;6.00;66.90
28763;DHT22;15918;51.270;6.522;2022-12-10T13:41:34;6.00;67.10
28763;DHT22;15918;51.270;6.522;2022-12-10T13:44:46;6.00;67.00
28763;DHT22;15918;51.270;6.522;2022-12-10T13:50:18;6.00;67.10
28763;DHT22;15918;51.270;6.522;2022-12-10T14:00:59;6.00;67.00
28763;DHT22;15918;51.270;6.522;2022-12-10T14:06:20;6.00;67.10
28763;DHT22;15918;51.270;6.522;2022-12-10T14:09:20;6.00;67.10
28763;DHT22;15918;51.270;6.522;2022-12-10T14:12:00;6.10;67.00
28763;DHT22;15918;51.270;6.522;2022-12-10T14:14:42;6.00;67.10
28763;DHT22;15918;51.270;6.522;2022-12-10T14:17:18;6.00;67.10
28763;DHT22;15918;51.270;6.522;2022-12-10T14:19:46;6.00;67.10
28763;DHT22;15918;51.270;6.522;2022-12-10T14:22:31;6.00;67.00
28763;DHT22;15918;51.270;6.522;2022-12-10T14:25:05;6.10;67.00
28763;DHT22;15918;51.270;6.522;2022-12-10T14:27:32;6.00;67.10
28763;DHT22;15918;51.270;6.522;2022-12-10T14:30:04;6.00;67.10
28763;DHT22;15918;51.270;6.522;2022-12-10T14:32:33;6.00;67.00
28763;DHT22;15918;51.270;6.522;2022-12-10T14:35:00;6.00;66.90
28763;DHT22;15918;51.270;6.522;2022-12-10T14:37:29;6.00;67.00
28763;DHT22;15918;51.270;6.522;2022-12-10T14:39:56;6.00;67.00
28763;DHT22;15918;51.270;6.522;2022-12-10T14:42:22;6.00;67.10
28763;DHT22;15918;51.270;6.522;2022-12-10T14:44:56;6.00;67.00
28763;DHT22;15918;51.270;6.522;2022-12-10T14:47:22;6.00;67.10
28763;DHT22;15918;51.270;6.522;2022-12-10T14:49:50;6.00;67.10
28763;DHT22;15918;51.270;6.522;2022-12-10T14:52:18;6.00;67.10
28763;DHT22;15918;51.270;6.522;2022-12-10T14:54:45;6.00;67.10
28763;DHT22;15918;51.270;6.522;2022-12-10T14:57:16;6.00;67.00
28763;DHT22;15918;51.270;6.522;2022-12-10T15:00:05;6.00;67.00
28763;DHT22;15918;51.270;6.522;2022-12-10T15:02:37;6.10;67.00
28763;DHT22;15918;51.270;6.522;2022-12-10T15:05:12;6.00;67.00
28763;DHT22;15918;51.270;6.522;2022-12-10T15:07:38;6.00;67.00
28763;DHT22;15918;51.270;6.522;2022-12-10T15:10:10;6.00;67.10
28763;DHT22;15918;51.270;6.522;2022-12-10T15:12:42;6.00;67.10
28763;DHT22;15918;51.270;6.522;2022-12-10T15:20:45;6.00;67.10
28763;DHT22;15918;51.270;6.522;2022-12-10T15:23:19;6.00;67.10
28763;DHT22;15918;51.270;6.522;2022-12-10T15:25:50;6.00;67.20
28763;DHT22;15918;51.270;6.522;2022-12-10T15:28:31;6.00;67.20
28763;DHT22;15918;51.270;6.522;2022-12-10T15:31:30;6.00;67.10
28763;DHT22;15918;51.270;6.522;2022-12-10T15:36:39;6.00;67.30
28763;DHT22;15918;51.270;6.522;2022-12-10T15:49:47;6.00;67.20
28763;DHT22;15918;51.270;6.522;2022-12-10T15:52:19;6.00;67.30
28763;DHT22;15918;51.270;6.522;2022-12-10T15:54:47;6.00;67.20
28763;DHT22;15918;51.270;6.522;2022-12-10T15:57:16;6.00;67.20
28763;DHT22;15918;51.270;6.522;2022-12-10T15:59:46;6.00;67.20
28763;DHT22;15918;51.270;6.522;2022-12-10T16:04:51;6.00;67.10
28763;DHT22;15918;51.270;6.522;2022-12-10T16:07:18;6.00;67.30
28763;DHT22;15918;51.270;6.522;2022-12-10T16:09:45;6.00;67.20
28763;DHT22;15918;51.270;6.522;2022-12-10T16:12:13;6.00;67.30
28763;DHT22;15918;51.270;6.522;2022-12-10T16:14:43;6.10;67.30
28763;DHT22;15918;51.270;6.522;2022-12-10T16:17:10;6.00;67.30
28763;DHT22;15918;51.270;6.522;2022-12-10T16:19:36;6.10;67.30
28763;DHT22;15918;51.270;6.522;2022-12-10T16:22:02;6.00;67.20
28763;DHT22;15918;51.270;6.522;2022-12-10T16:24:28;6.10;67.20
28763;DHT22;15918;51.270;6.522;2022-12-10T16:26:53;6.10;67.30
28763;DHT22;15918;51.270;6.522;2022-12-10T16:29:19;6.10;67.30
28763;DHT22;15918;51.270;6.522;2022-12-10T16:31:46;6.10;67.30
28763;DHT22;15918;51.270;6.522;2022-12-10T16:34:12;6.10;67.30
28763;DHT22;15918;51.270;6.522;2022-12-10T16:36:37;6.10;67.20
28763;DHT22;15918;51.270;6.522;2022-12-10T16:39:03;6.10;67.20
28763;DHT22;15918;51.270;6.522;2022-12-10T16:41:30;6.10;67.20
28763;DHT22;15918;51.270;6.522;2022-12-10T16:43:56;6.10;67.20
28763;DHT22;15918;51.270;6.522;2022-12-10T16:46:22;6.10;67.20
28763;DHT22;15918;51.270;6.522;2022-12-10T16:48:48;6.10;67.20
28763;DHT22;15918;51.270;6.522;2022-12-10T16:51:20;6.10;67.20
28763;DHT22;15918;51.270;6.522;2022-12-10T16:53:47;6.10;67.10
28763;DHT22;15918;51.270;6.522;2022-12-10T16:56:16;6.00;67.20
28763;DHT22;15918;51.270;6.522;2022-12-10T16:58:43;6.00;67.20
28763;DHT22;15918;51.270;6.522;2022-12-10T17:01:19;6.00;67.20
28763;DHT22;15918;51.270;6.522;2022-12-10T17:03:45;6.20;67.30
28763;DHT22;15918;51.270;6.522;2022-12-10T17:06:12;6.00;67.20
28763;DHT22;15918;51.270;6.522;2022-12-10T17:08:37;6.00;67.20
28763;DHT22;15918;51.270;6.522;2022-12-10T17:13:59;6.00;67.10
28763;DHT22;15918;51.270;6.522;2022-12-10T17:16:24;6.00;67.30
28763;DHT22;15918;51.270;6.522;2022-12-10T17:18:50;6.00;67.30
28763;DHT22;15918;51.270;6.522;2022-12-10T17:21:16;6.00;67.30
28763;DHT22;15918;51.270;6.522;2022-12-10T17:23:41;6.00;67.20
28763;DHT22;15918;51.270;6.522;2022-12-10T17:26:08;6.00;67.30
28763;DHT22;15918;51.270;6.522;2022-12-10T17:28:39;6.00;67.30
28763;DHT22;15918;51.270;6.522;2022-12-10T17:31:04;6.00;68.20
28763;DHT22;15918;51.270;6.522;2022-12-10T17:33:30;6.00;67.50
28763;DHT22;15918;51.270;6.522;2022-12-10T17:35:56;6.00;67.40
28763;DHT22;15918;51.270;6.522;2022-12-10T17:38:24;6.00;67.40
28763;DHT22;15918;51.270;6.522;2022-12-10T17:40:50;6.00;67.50
28763;DHT22;15918;51.270;6.522;2022-12-10T17:43:16;6.00;67.40
28763;DHT22;15918;51.270;6.522;2022-12-10T17:45:42;6.00;67.40
28763;DHT22;15918;51.270;6.522;2022-12-10T17:48:13;6.00;67.30
28763;DHT22;15918;51.270;6.522;2022-12-10T17:50:39;6.00;67.30
28763;DHT22;15918;51.270;6.522;2022-12-10T17:53:06;6.00;67.30
28763;DHT22;15918;51.270;6.522;2022-12-10T17:55:40;5.90;67.40
28763;DHT22;15918;51.270;6.522;2022-12-10T17:58:05;5.90;67.50
28763;DHT22;15918;51.270;6.522;2022-12-10T18:00:34;5.90;67.50
28763;DHT22;15918;51.270;6.522;2022-12-10T18:03:00;5.90;67.50
28763;DHT22;15918;51.270;6.522;2022-12-10T18:05:26;5.90;67.50
28763;DHT22;15918;51.270;6.522;2022-12-10T18:07:52;5.90;67.40